Time;durP1;ratioP1;P1;durP2;ratioP2;P2;SDS_P1;SDS_P2;PMS_P1;PMS_P2;Temp;Humidity;BMP_temperature;BMP_pressure;BME280_temperature;BME280_humidity;BME280_pressure;Samples;Min_cycle;Max_cycle;Signal;HPM_P1;HPM_P2
2022/12/06 00:02:23;;;;;;;11.40;5.95;;;0.20;99.90;;;;;;21036312;28;20043;-78
2022/12/06 00:12:25;;;;;;;17.35;6.40;;;0.40;99.90;;;;;;21069904;28;20417;-78
2022/12/06 00:22:26;;;;;;;11.63;5.93;;;0.50;99.90;;;;;;21116816;28;20084;-78
2022/12/06 00:32:27;;;;;;;11.38;6.00;;;0.50;99.90;;;;;;21192242;28;20030;-78
2022/12/06 00:42:27;;;;;;;10.05;5.35;;;0.40;99.90;;;;;;21145552;28;20036;-79
2022/12/06 00:52:28;;;;;;;9.02;5.43;;;0.30;99.90;;;;;;21140463;28;20087;-79
2022/12/06 01:02:29;;;;;;;10.60;5.47;;;0.20;99.90;;;;;;21140939;28;20032;-79
2022/12/06 01:12:30;;;;;;;10.02;5.50;;;0.10;99.90;;;;;;21036604;28;20040;-79
2022/12/06 01:22:31;;;;;;;10.05;5.85;;;-0.40;99.90;;;;;;21046687;28;20041;-79
2022/12/06 01:32:32;;;;;;;15.52;7.80;;;-0.40;99.90;;;;;;21038351;28;20521;-80
2022/12/06 01:42:33;;;;;;;22.08;9.40;;;0.00;99.90;;;;;;21048195;28;20044;-78
2022/12/06 01:52:45;;;;;;;25.05;10.23;;;0.50;99.90;;;;;;21024709;28;20041;-79
2022/12/06 02:02:46;;;;;;;15.60;8.07;;;0.50;99.90;;;;;;20971830;28;20032;-79
2022/12/06 02:12:53;;;;;;;12.98;6.82;;;0.50;99.90;;;;;;21070631;28;20036;-79
2022/12/06 02:22:56;;;;;;;18.35;8.57;;;0.50;99.90;;;;;;21137510;28;20035;-78
2022/12/06 02:33:09;;;;;;;13.18;6.72;;;0.30;99.90;;;;;;21206215;28;20035;-78
2022/12/06 02:43:24;;;;;;;17.83;7.82;;;0.10;99.90;;;;;;21186811;28;20032;-79
2022/12/06 02:53:28;;;;;;;84.80;12.18;;;0.00;99.90;;;;;;21141701;28;20118;-78
2022/12/06 03:04:31;;;;;;;18.02;8.63;;;0.10;99.90;;;;;;21221515;28;20070;-79
2022/12/06 03:15:07;;;;;;;19.25;8.57;;;0.20;99.90;;;;;;21117952;28;20051;-79
2022/12/06 03:25:09;;;;;;;18.45;9.57;;;0.30;99.90;;;;;;21157575;28;20047;-79
2022/12/06 03:35:13;;;;;;;18.45;9.07;;;0.20;99.90;;;;;;21219030;28;20095;-79
2022/12/06 03:45:14;;;;;;;23.23;10.88;;;0.30;99.90;;;;;;21171606;28;20052;-79
2022/12/06 03:55:15;;;;;;;22.38;10.90;;;0.30;99.90;;;;;;21160983;28;20031;-79
2022/12/06 04:05:16;;;;;;;25.00;10.57;;;0.40;99.90;;;;;;21219628;28;20019;-79
2022/12/06 04:15:18;;;;;;;24.02;10.50;;;0.30;99.90;;;;;;21154835;28;20114;-79
2022/12/06 04:25:19;;;;;;;32.30;12.65;;;0.30;99.90;;;;;;21091277;28;20032;-79
2022/12/06 04:45:40;;;;;;;34.10;14.00;;;0.30;99.90;;;;;;21081214;28;20037;-80
2022/12/06 04:55:47;;;;;;;36.22;14.00;;;0.30;99.90;;;;;;21054164;28;20049;-77
2022/12/06 05:05:49;;;;;;;29.48;12.77;;;0.30;99.90;;;;;;21105569;28;20032;-79
2022/12/06 05:15:59;;;;;;;28.80;12.73;;;0.30;99.90;;;;;;21089651;28;20040;-77
2022/12/06 05:26:10;;;;;;;30.43;13.27;;;0.30;99.90;;;;;;21079049;28;20115;-77
2022/12/06 05:36:14;;;;;;;30.02;12.02;;;0.40;99.90;;;;;;21087761;28;20064;-78
2022/12/06 05:46:15;;;;;;;42.25;13.50;;;0.50;99.90;;;;;;21096214;28;20035;-78
2022/12/06 05:56:16;;;;;;;23.83;11.18;;;0.60;99.90;;;;;;21096207;28;21258;-78
2022/12/06 06:06:17;;;;;;;25.45;10.30;;;0.60;99.90;;;;;;21094094;28;20122;-78
2022/12/06 06:16:18;;;;;;;19.80;10.05;;;0.70;99.90;;;;;;21068885;28;20032;-77
2022/12/06 06:26:18;;;;;;;20.48;10.30;;;0.70;99.90;;;;;;21094155;28;20024;-78
2022/12/06 06:36:19;;;;;;;19.90;9.82;;;0.80;99.90;;;;;;21093715;28;20028;-77
2022/12/06 06:46:20;;;;;;;19.17;9.73;;;0.80;99.90;;;;;;21081131;28;20107;-78
2022/12/06 06:56:21;;;;;;;20.60;9.68;;;0.90;99.90;;;;;;21062842;28;20038;-76
2022/12/06 07:06:22;;;;;;;18.80;8.60;;;1.00;99.90;;;;;;21077207;28;20502;-77
2022/12/06 07:16:22;;;;;;;18.05;8.82;;;1.00;99.90;;;;;;21081847;28;20230;-77
2022/12/06 07:26:23;;;;;;;14.75;7.80;;;1.10;99.90;;;;;;21084103;28;20581;-77
2022/12/06 07:36:26;;;;;;;19.92;8.23;;;1.10;99.90;;;;;;21085392;28;20032;-78
2022/12/06 07:46:27;;;;;;;20.52;9.48;;;1.00;99.90;;;;;;21090560;28;20043;-77
2022/12/06 07:56:28;;;;;;;24.15;9.93;;;0.60;99.90;;;;;;21089331;28;20465;-76
2022/12/06 08:06:30;;;;;;;25.25;9.95;;;0.60;99.90;;;;;;21068077;28;20028;-74
2022/12/06 08:16:31;;;;;;;24.20;10.90;;;1.00;99.90;;;;;;21070020;28;20066;-78
2022/12/06 08:26:31;;;;;;;19.80;9.55;;;1.50;99.90;;;;;;21070847;28;20474;-78
2022/12/06 08:36:32;;;;;;;18.50;9.20;;;1.70;99.90;;;;;;21092555;28;20031;-79
2022/12/06 08:46:34;;;;;;;18.15;8.95;;;1.70;99.90;;;;;;21091111;28;20035;-77
2022/12/06 08:56:36;;;;;;;19.98;9.30;;;2.00;99.90;;;;;;21089982;28;20090;-75
2022/12/06 09:06:42;;;;;;;21.10;9.98;;;2.10;99.90;;;;;;21089414;28;20032;-78
2022/12/06 09:16:43;;;;;;;24.08;10.10;;;2.50;99.90;;;;;;21085565;28;20131;-78
2022/12/06 09:26:44;;;;;;;20.23;9.60;;;3.00;99.90;;;;;;21102368;28;20509;-78
2022/12/06 09:36:51;;;;;;;23.55;11.05;;;3.20;99.90;;;;;;21102474;28;20039;-78
2022/12/06 09:47:14;;;;;;;22.85;10.18;;;3.40;99.90;;;;;;21101763;28;20494;-78
2022/12/06 09:57:18;;;;;;;28.08;11.98;;;3.40;99.90;;;;;;21099383;28;20032;-78
2022/12/06 10:07:43;;;;;;;24.98;11.82;;;3.40;99.90;;;;;;21098410;28;20051;-78
2022/12/06 10:18:02;;;;;;;35.30;13.20;;;3.50;99.90;;;;;;21094181;28;20035;-77
2022/12/06 10:28:17;;;;;;;31.85;12.75;;;3.40;99.90;;;;;;21083675;28;20422;-77
2022/12/06 10:38:40;;;;;;;20.98;9.73;;;3.70;99.90;;;;;;21083196;28;20490;-77
2022/12/06 10:49:04;;;;;;;22.92;10.57;;;3.50;99.90;;;;;;21082300;28;20089;-78
2022/12/06 10:59:20;;;;;;;21.60;10.75;;;3.40;99.90;;;;;;21064341;28;20040;-77
2022/12/06 11:09:41;;;;;;;21.70;10.50;;;3.50;99.90;;;;;;21082230;28;20490;-77
2022/12/06 11:20:07;;;;;;;20.25;10.10;;;3.50;99.90;;;;;;21079763;28;20494;-77
2022/12/06 11:30:19;;;;;;;20.92;10.00;;;3.40;99.90;;;;;;21078512;28;20028;-77
2022/12/06 11:40:46;;;;;;;;;;;3.50;99.90;;;;;;21079584;28;20034;-78
2022/12/06 11:50:48;;;;;;;23.05;10.00;;;3.50;99.90;;;;;;21072842;28;19931;-77
2022/12/06 12:01:03;;;;;;;22.73;10.43;;;3.40;99.90;;;;;;21077338;28;20108;-77
2022/12/06 12:11:04;;;;;;;19.55;9.43;;;3.80;99.90;;;;;;21076055;28;20058;-77
2022/12/06 12:21:06;;;;;;;21.50;10.60;;;3.40;99.90;;;;;;21056976;28;20067;-77
2022/12/06 12:31:20;;;;;;;22.17;11.20;;;3.40;99.90;;;;;;21056888;28;20059;-77
2022/12/06 12:41:37;;;;;;;23.98;10.35;;;3.70;99.90;;;;;;21079517;28;20050;-77
2022/12/06 12:51:38;;;;;;;30.05;12.50;;;3.70;99.90;;;;;;21093673;28;20032;-78
2022/12/06 13:01:45;;;;;;;23.88;10.73;;;3.90;99.90;;;;;;21096682;28;20026;-78
2022/12/06 13:11:52;;;;;;;22.83;10.05;;;3.90;99.90;;;;;;21095808;28;20036;-78
2022/12/06 13:21:54;;;;;;;23.75;11.25;;;3.70;99.90;;;;;;21093089;28;20418;-78
2022/12/06 13:31:58;;;;;;;20.10;9.35;;;4.00;99.90;;;;;;21099548;28;20074;-78
2022/12/06 13:42:16;;;;;;;19.30;10.80;;;4.40;99.90;;;;;;21098026;28;20032;-77
2022/12/06 13:52:59;;;;;;;19.17;10.32;;;4.90;99.90;;;;;;21079569;28;20482;-76
2022/12/06 14:03:25;;;;;;;23.05;10.73;;;4.70;99.90;;;;;;20676542;28;20137;-77
2022/12/06 14:13:26;;;;;;;20.42;10.50;;;4.50;99.90;;;;;;20658764;28;20105;-77
2022/12/06 14:23:31;;;;;;;;;;;4.10;99.90;;;;;;20679032;28;20532;-79
2022/12/06 14:33:31;;;;;;;22.25;10.43;;;4.10;99.90;;;;;;21028792;28;19976;-78
2022/12/06 14:43:32;;;;;;;;;;;4.80;99.90;;;;;;21105146;28;20032;-79
2022/12/06 14:53:37;;;;;;;29.35;12.40;;;5.10;99.90;;;;;;21101481;28;19919;-77
2022/12/06 15:03:38;;;;;;;19.75;10.48;;;4.90;99.90;;;;;;21083629;28;20036;-77
2022/12/06 15:13:39;;;;;;;;;;;4.10;99.90;;;;;;21008866;28;20024;-78
2022/12/06 15:23:53;;;;;;;27.85;11.90;;;3.50;99.90;;;;;;20981040;28;19912;-78
2022/12/06 15:33:56;;;;;;;23.75;12.30;;;3.50;99.90;;;;;;21003724;28;20127;-77
2022/12/06 15:43:57;;;;;;;26.60;12.00;;;4.00;99.90;;;;;;20992730;28;20060;-77
2022/12/06 15:53:59;;;;;;;23.48;11.77;;;3.30;99.90;;;;;;21003539;28;20402;-78
2022/12/06 16:04:00;;;;;;;55.05;24.10;;;3.20;99.90;;;;;;21020220;28;20032;-77
2022/12/06 16:14:01;;;;;;;27.50;12.38;;;3.00;99.90;;;;;;21004135;28;20434;-78
2022/12/06 16:24:09;;;;;;;29.52;11.57;;;3.00;99.90;;;;;;20993337;28;20124;-78
2022/12/06 16:34:10;;;;;;;24.55;11.55;;;3.00;99.90;;;;;;20983750;28;20041;-78
2022/12/06 16:44:11;;;;;;;22.88;10.77;;;3.10;99.90;;;;;;21000775;28;20460;-78
2022/12/06 16:54:12;;;;;;;24.40;11.85;;;3.10;99.90;;;;;;21005588;28;20032;-78
2022/12/06 17:04:13;;;;;;;26.25;12.38;;;2.90;99.90;;;;;;21014888;28;20031;-77
2022/12/06 17:14:14;;;;;;;22.13;10.60;;;2.70;99.90;;;;;;21012081;28;20043;-77
2022/12/06 17:24:16;;;;;;;28.98;12.57;;;2.50;99.90;;;;;;20994528;28;20405;-77
2022/12/06 17:34:18;;;;;;;30.23;12.30;;;2.20;99.90;;;;;;20999112;28;20036;-77
2022/12/06 17:44:19;;;;;;;28.33;11.88;;;2.20;99.90;;;;;;20984272;28;20028;-77
2022/12/06 17:54:20;;;;;;;37.78;15.23;;;2.20;99.90;;;;;;21004583;28;20021;-76
2022/12/06 18:04:21;;;;;;;40.53;15.05;;;2.30;99.90;;;;;;21002050;28;20126;-77
2022/12/06 18:14:22;;;;;;;33.13;13.70;;;2.40;99.90;;;;;;21000170;28;20033;-76
2022/12/06 18:24:23;;;;;;;32.72;14.88;;;2.40;99.90;;;;;;20999644;28;20067;-76
2022/12/06 18:34:24;;;;;;;34.85;14.25;;;2.50;99.90;;;;;;21008424;28;20032;-76
2022/12/06 18:44:25;;;;;;;31.45;14.32;;;2.60;99.90;;;;;;20994602;28;20391;-77
2022/12/06 18:54:27;;;;;;;33.13;13.65;;;2.60;99.90;;;;;;21000330;28;20036;-76
2022/12/06 19:04:27;;;;;;;36.17;14.80;;;2.70;99.90;;;;;;20969463;28;20471;-77
2022/12/06 19:14:28;;;;;;;33.33;13.95;;;2.60;99.90;;;;;;21028042;28;20039;-77
2022/12/06 19:24:29;;;;;;;32.80;14.73;;;2.70;99.90;;;;;;21078067;28;20024;-77
2022/12/06 19:34:30;;;;;;;28.67;13.38;;;2.80;99.90;;;;;;21077012;28;20036;-77
2022/12/06 19:44:31;;;;;;;30.77;15.20;;;2.70;99.90;;;;;;20996322;28;20024;-77
2022/12/06 19:54:32;;;;;;;33.50;14.70;;;2.80;99.90;;;;;;20991777;28;20055;-77
2022/12/06 20:04:36;;;;;;;39.75;14.88;;;2.90;99.90;;;;;;21012405;28;20115;-77
2022/12/06 20:14:42;;;;;;;34.13;14.70;;;2.80;99.90;;;;;;21073985;28;20381;-77
2022/12/06 20:24:43;;;;;;;33.05;14.35;;;2.80;99.90;;;;;;21072487;28;20031;-77
2022/12/06 20:34:44;;;;;;;46.35;17.10;;;2.70;99.90;;;;;;21072120;28;20032;-76
2022/12/06 20:44:45;;;;;;;44.42;15.80;;;2.80;99.90;;;;;;21071942;28;20036;-77
2022/12/06 20:54:46;;;;;;;37.30;16.25;;;2.70;99.90;;;;;;21071960;28;20469;-77
2022/12/06 21:04:47;;;;;;;40.85;15.88;;;2.70;99.90;;;;;;21053726;28;20039;-77
2022/12/06 21:14:48;;;;;;;36.58;16.55;;;2.60;99.90;;;;;;21003999;28;20043;-77
2022/12/06 21:24:49;;;;;;;42.85;17.58;;;2.60;99.90;;;;;;21003342;28;20032;-76
2022/12/06 21:34:50;;;;;;;35.05;16.73;;;2.60;99.90;;;;;;21002692;28;20035;-77
2022/12/06 21:44:50;;;;;;;41.25;16.33;;;2.50;99.90;;;;;;21001756;28;20039;-77
2022/12/06 21:54:51;;;;;;;46.17;17.55;;;2.50;99.90;;;;;;21001221;28;20469;-77
2022/12/06 22:04:52;;;;;;;40.50;17.70;;;2.40;99.90;;;;;;20982135;28;20028;-77
2022/12/06 22:14:54;;;;;;;38.78;16.67;;;2.50;99.90;;;;;;20998854;28;20128;-77
2022/12/06 22:24:54;;;;;;;48.55;18.45;;;2.40;99.90;;;;;;20999288;28;20032;-77
2022/12/06 22:34:55;;;;;;;57.28;18.92;;;2.50;99.90;;;;;;20998449;28;20513;-77
2022/12/06 22:44:56;;;;;;;50.45;18.40;;;2.40;99.90;;;;;;20997594;28;20032;-77
2022/12/06 22:54:57;;;;;;;48.70;18.48;;;2.50;99.90;;;;;;20997243;28;20027;-78
2022/12/06 23:04:57;;;;;;;47.85;17.95;;;2.40;99.90;;;;;;21021512;28;20047;-77
2022/12/06 23:14:58;;;;;;;45.92;17.90;;;2.40;99.90;;;;;;21078802;28;20035;-77
2022/12/06 23:24:59;;;;;;;42.85;18.52;;;2.50;99.90;;;;;;21077028;28;20119;-77
2022/12/06 23:35:00;;;;;;;52.35;19.55;;;2.40;99.90;;;;;;21069810;28;20074;-77
2022/12/06 23:45:00;;;;;;;53.60;19.38;;;2.40;99.90;;;;;;21058749;28;20106;-77
2022/12/06 23:55:01;;;;;;;43.65;17.13;;;2.40;99.90;;;;;;21076169;28;20043;-77
